Time;durP1;ratioP1;P1;durP2;ratioP2;P2;SDS_P1;SDS_P2;PMS_P1;PMS_P2;Temp;Humidity;BMP_temperature;BMP_pressure;BME280_temperature;BME280_humidity;BME280_pressure;Samples;Min_cycle;Max_cycle;Signal;HPM_P1;HPM_P2
2021/10/16 00:01:31;;;;;;;13.63;9.50;;;;;;;7.25;100.00;100931.66;5017333;28;20045;-53
2021/10/16 00:03:57;;;;;;;12.02;8.57;;;;;;;7.18;100.00;100930.94;5013480;28;20156;-52
2021/10/16 00:06:24;;;;;;;14.88;9.48;;;;;;;7.18;100.00;100938.84;5014916;28;20050;-53
2021/10/16 00:08:50;;;;;;;12.50;9.25;;;;;;;7.14;100.00;100929.28;5022158;28;20639;-52
2021/10/16 00:11:17;;;;;;;14.20;9.48;;;;;;;7.13;100.00;100937.22;5018755;28;21502;-52
2021/10/16 00:13:43;;;;;;;11.60;8.63;;;;;;;7.13;100.00;100940.72;5017764;28;20053;-53
2021/10/16 00:16:10;;;;;;;11.57;8.55;;;;;;;7.12;100.00;100933.72;5018029;28;20056;-52
2021/10/16 00:18:37;;;;;;;14.10;8.70;;;;;;;7.13;100.00;100931.97;5019378;28;20040;-52
2021/10/16 00:21:05;;;;;;;10.90;8.50;;;;;;;7.11;100.00;100942.53;5020214;28;20045;-53
2021/10/16 00:23:32;;;;;;;11.20;7.90;;;;;;;7.10;100.00;100943.41;5019104;28;20470;-53
2021/10/16 00:25:59;;;;;;;10.93;7.82;;;;;;;7.10;100.00;100940.78;5016505;28;20140;-52
2021/10/16 00:28:25;;;;;;;10.02;7.90;;;;;;;7.08;100.00;100937.34;5017872;28;20059;-52
2021/10/16 00:30:52;;;;;;;10.93;7.93;;;;;;;7.08;100.00;100939.13;5022734;28;20052;-53
2021/10/16 00:33:18;;;;;;;10.75;8.27;;;;;;;7.07;100.00;100943.53;5018342;28;20055;-52
2021/10/16 00:35:46;;;;;;;12.15;8.23;;;;;;;7.05;100.00;100945.31;5014438;28;20060;-54
2021/10/16 00:38:12;;;;;;;10.32;8.00;;;;;;;7.05;100.00;100950.59;5016262;28;20056;-54
2021/10/16 00:40:39;;;;;;;12.57;8.43;;;;;;;7.02;100.00;100951.53;5020189;28;20049;-53
2021/10/16 00:43:05;;;;;;;11.60;9.20;;;;;;;6.92;100.00;100933.34;5019736;28;20529;-53
2021/10/16 00:45:32;;;;;;;10.90;9.00;;;;;;;7.04;100.00;100951.50;5015783;28;20060;-52
2021/10/16 00:47:58;;;;;;;14.48;9.93;;;;;;;7.04;100.00;100951.50;5019949;28;20073;-53
2021/10/16 00:50:25;;;;;;;11.68;8.85;;;;;;;7.05;100.00;100953.22;5016417;28;20053;-53
2021/10/16 00:52:52;;;;;;;10.82;8.77;;;;;;;7.05;100.00;100950.59;5020384;28;20137;-53
2021/10/16 00:55:21;;;;;;;11.98;9.23;;;;;;;7.06;100.00;100952.31;5016371;28;20041;-53
2021/10/16 00:57:48;;;;;;;15.00;9.48;;;;;;;7.01;100.00;100954.19;5018233;28;20053;-53
2021/10/16 01:00:15;;;;;;;13.02;9.80;;;;;;;6.95;100.00;100949.06;5025991;28;20059;-53
2021/10/16 01:02:42;;;;;;;10.43;8.68;;;;;;;6.88;100.00;100952.75;5023646;28;20106;-53
2021/10/16 01:05:10;;;;;;;13.13;9.70;;;;;;;6.85;100.00;100944.91;5017860;28;20057;-53
2021/10/16 01:07:38;;;;;;;12.10;8.88;;;;;;;6.85;100.00;100950.19;5020405;28;20065;-53
2021/10/16 01:10:07;;;;;;;14.25;10.18;;;;;;;6.80;100.00;100946.78;5020079;28;20053;-54
2021/10/16 01:12:34;;;;;;;13.07;9.30;;;;;;;6.74;100.00;100941.66;5027089;28;20057;-53
2021/10/16 01:15:03;;;;;;;12.98;9.15;;;;;;;6.69;100.00;100947.03;5018586;28;20060;-52
2021/10/16 01:17:31;;;;;;;13.15;9.77;;;;;;;6.64;100.00;100943.63;5025322;28;20048;-54
2021/10/16 01:20:04;;;;;;;10.68;8.93;;;;;;;6.59;100.00;100943.75;5019993;28;20053;-53
2021/10/16 01:22:32;;;;;;;10.95;9.20;;;;;;;6.55;100.00;100949.09;5021521;28;20053;-52
2021/10/16 01:25:00;;;;;;;12.85;9.90;;;;;;;6.50;100.00;100943.94;5022562;28;20049;-53
2021/10/16 01:27:27;;;;;;;14.90;10.32;;;;;;;6.51;100.00;100945.66;5025905;28;20045;-53
2021/10/16 01:29:54;;;;;;;16.17;10.43;;;;;;;6.50;100.00;100941.28;5020654;28;20048;-54
2021/10/16 01:32:20;;;;;;;12.70;9.52;;;;;;;6.49;100.00;100946.59;5019819;28;20142;-53
2021/10/16 01:34:47;;;;;;;13.18;9.90;;;;;;;6.47;100.00;100940.50;5028786;28;20044;-54
2021/10/16 01:37:13;;;;;;;14.82;10.20;;;;;;;6.50;100.00;100937.78;5029095;28;20056;-53
2021/10/16 01:39:40;;;;;;;12.57;9.70;;;;;;;6.51;100.00;100937.75;5034489;28;20041;-63
2021/10/16 01:42:11;;;;;;;15.60;9.68;;;;;;;6.50;100.00;100929.91;5035655;28;20049;-54
2021/10/16 01:44:40;;;;;;;15.43;9.20;;;;;;;6.53;100.00;100940.38;5023172;28;20064;-53
2021/10/16 01:47:07;;;;;;;12.98;9.32;;;;;;;6.50;100.00;100932.53;5031991;28;20057;-53
2021/10/16 01:49:34;;;;;;;12.50;9.02;;;;;;;6.35;100.00;100912.69;5035359;28;20363;-58
2021/10/16 01:52:01;;;;;;;11.82;9.43;;;;;;;6.45;100.00;100937.91;5029864;28;20052;-53
2021/10/16 01:54:28;;;;;;;12.63;9.73;;;;;;;6.41;100.00;100933.63;5027001;28;20055;-56
2021/10/16 01:56:55;;;;;;;12.65;9.32;;;;;;;6.39;100.00;100934.53;5027543;28;20144;-53
2021/10/16 01:59:23;;;;;;;11.82;9.52;;;;;;;6.34;100.00;100932.88;5033191;28;20052;-53
2021/10/16 02:02:05;;;;;;;12.15;9.20;;;;;;;6.31;100.00;100934.69;5031387;28;20060;-52
2021/10/16 02:04:32;;;;;;;11.70;9.00;;;;;;;6.23;100.00;100936.63;5029696;28;20068;-52
2021/10/16 02:06:59;;;;;;;10.85;8.88;;;;;;;6.18;100.00;100934.06;5031362;28;20049;-53
2021/10/16 02:09:25;;;;;;;10.75;8.85;;;;;;;6.13;100.00;100938.59;5032678;28;20060;-52
2021/10/16 02:11:52;;;;;;;14.13;9.50;;;;;;;6.07;100.00;100940.47;5034979;28;20059;-53
2021/10/16 02:14:18;;;;;;;13.63;9.70;;;;;;;6.05;100.00;100945.75;5034628;28;20061;-52
2021/10/16 02:16:45;;;;;;;11.77;8.95;;;;;;;6.05;100.00;100942.25;5027075;28;20695;-52
2021/10/16 02:19:12;;;;;;;12.32;8.73;;;;;;;6.03;100.00;100944.03;5032427;28;20053;-52
2021/10/16 02:21:38;;;;;;;15.10;9.35;;;;;;;6.01;100.00;100940.56;5026270;28;20071;-53
2021/10/16 02:24:05;;;;;;;16.05;9.55;;;;;;;5.95;100.00;100936.31;5029799;28;20081;-52
2021/10/16 02:26:31;;;;;;;13.20;9.77;;;;;;;5.92;100.00;100941.63;5024755;28;20043;-53
2021/10/16 02:28:57;;;;;;;12.50;9.25;;;;;;;5.88;100.00;100934.66;5032085;28;20056;-53
2021/10/16 02:31:24;;;;;;;12.80;9.70;;;;;;;5.84;100.00;100946.97;5039911;28;20044;-54
2021/10/16 02:33:51;;;;;;;15.02;10.07;;;;;;;5.82;100.00;100946.16;5037691;28;20067;-53
2021/10/16 02:36:19;;;;;;;14.57;9.88;;;;;;;5.77;100.00;100948.00;5025659;28;20054;-53
2021/10/16 02:38:46;;;;;;;13.20;9.68;;;;;;;5.73;100.00;100948.09;5031034;28;20037;-52
2021/10/16 02:41:12;;;;;;;13.20;10.40;;;;;;;5.69;100.00;100960.41;5029932;28;20329;-52
2021/10/16 02:43:39;;;;;;;15.68;10.75;;;;;;;5.66;100.00;100954.34;5025912;28;20060;-53
2021/10/16 02:46:05;;;;;;;16.15;10.77;;;;;;;5.64;100.00;100951.75;5024653;28;20438;-54
2021/10/16 02:48:32;;;;;;;16.33;10.38;;;;;;;5.70;100.00;100959.50;5032307;28;20093;-53
2021/10/16 02:50:59;;;;;;;13.40;10.23;;;;;;;5.69;100.00;100960.41;5032034;28;20744;-53
2021/10/16 02:53:25;;;;;;;14.80;10.85;;;;;;;5.65;100.00;100961.38;5022034;28;20053;-52
2021/10/16 02:55:52;;;;;;;18.73;10.07;;;;;;;5.58;100.00;100963.22;5019400;28;20045;-53
2021/10/16 02:58:18;;;;;;;14.15;10.23;;;;;;;5.54;100.00;100958.91;5020117;28;20506;-54
2021/10/16 03:00:45;;;;;;;15.35;10.02;;;;;;;5.49;100.00;100963.41;5019510;28;20053;-52
2021/10/16 03:03:11;;;;;;;12.18;9.55;;;;;;;5.42;100.00;100961.75;5023791;28;20052;-55
2021/10/16 03:05:38;;;;;;;13.93;9.52;;;;;;;5.34;100.00;100952.28;5019016;28;20049;-52
2021/10/16 03:08:04;;;;;;;12.05;9.18;;;;;;;5.25;100.00;100959.41;5024441;28;20514;-53
2021/10/16 03:10:31;;;;;;;13.10;9.05;;;;;;;5.18;100.00;100957.78;5022451;28;20049;-53
2021/10/16 03:12:57;;;;;;;10.88;9.10;;;;;;;5.12;100.00;100957.88;5023492;28;20049;-53
2021/10/16 03:15:24;;;;;;;11.65;9.43;;;;;;;5.08;100.00;100960.56;5020005;28;20055;-53
2021/10/16 03:17:50;;;;;;;13.10;9.30;;;;;;;5.02;100.00;100960.69;5025606;28;20060;-54
2021/10/16 03:20:17;;;;;;;13.57;10.15;;;;;;;4.96;100.00;100956.38;5025490;28;20045;-54
2021/10/16 03:22:43;;;;;;;14.45;9.48;;;;;;;4.94;100.00;100958.16;5021227;28;20764;-54
2021/10/16 03:25:10;;;;;;;11.65;9.55;;;;;;;4.94;100.00;100960.78;5034331;28;20064;-52
2021/10/16 03:27:36;;;;;;;11.60;9.10;;;;;;;4.86;100.00;100960.91;5033847;28;20056;-52
2021/10/16 03:30:04;;;;;;;11.80;9.27;;;;;;;4.84;100.00;100957.44;5037004;28;20042;-53
2021/10/16 03:32:30;;;;;;;11.25;9.07;;;;;;;4.83;100.00;100949.59;5037072;28;20059;-53
2021/10/16 03:34:57;;;;;;;12.65;9.35;;;;;;;4.88;100.00;100958.22;5030648;28;20058;-53
2021/10/16 03:37:23;;;;;;;11.90;9.50;;;;;;;4.87;100.00;100967.91;5031891;28;20620;-53
2021/10/16 03:39:50;;;;;;;13.55;9.48;;;;;;;4.87;100.00;100956.53;5035894;28;20044;-53
2021/10/16 03:42:16;;;;;;;13.57;9.52;;;;;;;4.87;100.00;100956.53;5038957;28;20049;-55
2021/10/16 03:44:43;;;;;;;13.90;9.30;;;;;;;4.81;100.00;100953.97;5032250;28;20055;-59
2021/10/16 03:47:09;;;;;;;13.27;9.48;;;;;;;4.73;100.00;100958.44;5019674;28;20766;-52
2021/10/16 03:49:36;;;;;;;12.23;9.05;;;;;;;4.66;100.00;100960.31;5021063;28;20498;-55
2021/10/16 03:52:03;;;;;;;11.88;9.30;;;;;;;4.62;100.00;100969.09;5019787;28;20073;-53
2021/10/16 03:54:30;;;;;;;12.02;9.32;;;;;;;4.59;100.00;100964.75;5020589;28;20061;-54
2021/10/16 03:56:56;;;;;;;11.20;9.43;;;;;;;4.55;100.00;100960.47;5016761;28;20426;-52
2021/10/16 03:59:24;;;;;;;12.45;8.90;;;;;;;4.42;100.00;100937.03;5021036;28;20507;-53
2021/10/16 04:01:50;;;;;;;11.38;9.13;;;;;;;4.48;100.00;100958.81;5018986;28;20048;-53
2021/10/16 04:04:17;;;;;;;13.70;9.23;;;;;;;4.48;100.00;100964.03;5022119;28;20077;-53
2021/10/16 04:06:43;;;;;;;11.15;9.13;;;;;;;4.49;100.00;100973.66;5029246;28;20116;-53
2021/10/16 04:09:10;;;;;;;11.60;8.82;;;;;;;4.44;100.00;100964.97;5018447;28;20057;-54
2021/10/16 04:11:37;;;;;;;14.02;9.32;;;;;;;4.35;100.00;100956.34;5018269;28;20060;-53
2021/10/16 04:14:03;;;;;;;13.10;9.60;;;;;;;4.46;100.00;100971.06;5020334;28;20053;-53
2021/10/16 04:16:30;;;;;;;11.23;9.65;;;;;;;4.46;100.00;100970.19;5015250;28;20044;-54
2021/10/16 04:18:56;;;;;;;12.70;9.40;;;;;;;4.46;100.00;100970.19;5018231;28;20045;-54
2021/10/16 04:21:23;;;;;;;13.10;9.57;;;;;;;4.49;100.00;100965.78;5017891;28;20767;-54
2021/10/16 04:23:49;;;;;;;11.02;8.55;;;;;;;4.50;100.00;100970.16;5018337;28;20054;-54
2021/10/16 04:26:16;;;;;;;13.75;9.57;;;;;;;4.50;100.00;100967.53;5013188;28;20052;-53
2021/10/16 04:28:42;;;;;;;11.25;8.73;;;;;;;4.54;100.00;100968.34;5021607;28;20049;-54
2021/10/16 04:31:09;;;;;;;12.00;8.57;;;;;;;4.55;100.00;100965.72;5017833;28;20048;-53
2021/10/16 04:33:35;;;;;;;11.30;8.48;;;;;;;4.57;100.00;100963.91;5018039;28;20421;-53
2021/10/16 04:36:03;;;;;;;12.02;9.00;;;;;;;4.57;100.00;100976.16;5015636;28;20045;-53
2021/10/16 04:38:29;;;;;;;12.82;9.10;;;;;;;4.55;100.00;100968.34;5017738;28;20132;-54
2021/10/16 04:40:56;;;;;;;12.23;9.45;;;;;;;4.57;100.00;100966.53;5018663;28;20199;-54
2021/10/16 04:43:23;;;;;;;12.07;9.43;;;;;;;4.56;100.00;100962.19;5021163;28;20053;-55
2021/10/16 04:45:49;;;;;;;11.60;9.05;;;;;;;4.54;100.00;100958.72;5013758;28;20053;-54
2021/10/16 04:48:16;;;;;;;10.68;8.98;;;;;;;4.59;100.00;100971.75;5018086;28;20053;-54
2021/10/16 04:50:44;;;;;;;11.80;9.07;;;;;;;4.59;100.00;100964.75;5016363;28;20061;-53
2021/10/16 04:53:11;;;;;;;11.93;8.50;;;;;;;4.62;100.00;100968.25;5016063;28;20057;-53
2021/10/16 04:55:37;;;;;;;13.75;9.10;;;;;;;4.59;100.00;100967.38;5016537;28;20056;-54
2021/10/16 04:58:04;;;;;;;10.82;9.25;;;;;;;4.66;100.00;100972.56;5016011;28;20057;-53
2021/10/16 05:00:31;;;;;;;12.40;9.00;;;;;;;4.69;100.00;100975.16;5015256;28;20053;-52
2021/10/16 05:02:58;;;;;;;11.68;8.45;;;;;;;4.67;100.00;100976.91;5024710;28;20159;-52
2021/10/16 05:05:26;;;;;;;11.25;8.75;;;;;;;4.65;100.00;100981.31;5017016;28;20068;-54
2021/10/16 05:07:53;;;;;;;10.48;8.40;;;;;;;4.65;100.00;100978.69;5019848;28;20968;-53
2021/10/16 05:10:19;;;;;;;10.60;8.02;;;;;;;4.66;100.00;100988.31;5022913;28;20103;-54
2021/10/16 05:12:46;;;;;;;10.50;8.02;;;;;;;4.65;100.00;100982.19;5026944;28;20060;-54
2021/10/16 05:15:12;;;;;;;10.95;8.23;;;;;;;4.61;100.00;100971.75;5019801;28;20112;-54
2021/10/16 05:17:39;;;;;;;10.63;8.23;;;;;;;4.61;100.00;100984.84;5021419;28;20056;-53
2021/10/16 05:20:06;;;;;;;12.05;8.35;;;;;;;4.59;100.00;100977.00;5020396;28;20045;-53
2021/10/16 05:22:33;;;;;;;12.07;9.23;;;;;;;4.62;100.00;100978.72;5022467;28;20060;-54
2021/10/16 05:24:59;;;;;;;12.18;9.18;;;;;;;4.66;100.00;100983.94;5023595;28;20425;-54
2021/10/16 05:27:26;;;;;;;11.93;9.02;;;;;;;4.70;100.00;100984.75;5015117;28;20041;-54
2021/10/16 05:29:52;;;;;;;12.32;9.05;;;;;;;4.73;100.00;100984.69;5022759;28;20056;-52
2021/10/16 05:32:18;;;;;;;12.55;9.55;;;;;;;4.78;100.00;100980.25;5025280;28;20040;-53
2021/10/16 05:34:45;;;;;;;13.23;10.20;;;;;;;4.83;100.00;100983.69;5020013;28;20482;-54
2021/10/16 05:37:12;;;;;;;14.63;10.07;;;;;;;4.89;100.00;100991.47;5020834;28;20057;-53
2021/10/16 05:39:38;;;;;;;11.77;9.65;;;;;;;4.96;100.00;100989.63;5022466;28;20355;-52
2021/10/16 05:42:05;;;;;;;14.20;9.80;;;;;;;5.01;100.00;100996.56;5020244;28;20053;-53
2021/10/16 05:44:31;;;;;;;11.00;8.57;;;;;;;4.98;100.00;100991.34;5023363;28;20050;-54
2021/10/16 05:46:58;;;;;;;14.43;10.05;;;;;;;5.00;100.00;100996.56;5019309;28;20046;-53
2021/10/16 05:49:24;;;;;;;15.30;10.30;;;;;;;5.05;100.00;100995.59;5025848;28;20045;-53
2021/10/16 05:51:51;;;;;;;12.88;9.70;;;;;;;5.09;100.00;101002.53;5020187;28;20052;-54
2021/10/16 05:54:17;;;;;;;13.55;9.43;;;;;;;5.06;100.00;101006.97;5022712;28;20049;-53
2021/10/16 05:56:44;;;;;;;15.57;10.05;;;;;;;5.06;100.00;101007.84;5015751;28;20049;-53
2021/10/16 05:59:11;;;;;;;13.75;9.68;;;;;;;5.06;100.00;101013.09;5017813;28;20071;-53
2021/10/16 06:01:37;;;;;;;13.07;9.30;;;;;;;5.09;100.00;101020.06;5021573;28;20042;-55
2021/10/16 06:04:04;;;;;;;12.93;9.00;;;;;;;5.13;100.00;101013.88;5025954;28;20056;-54
2021/10/16 06:06:30;;;;;;;14.18;8.80;;;;;;;5.11;100.00;101007.78;5019118;28;20053;-54
2021/10/16 06:08:57;;;;;;;11.95;9.00;;;;;;;5.09;100.00;101020.91;5020445;28;20057;-55
2021/10/16 06:11:23;;;;;;;12.02;8.55;;;;;;;5.12;100.00;101022.63;5020786;28;20231;-54
2021/10/16 06:13:50;;;;;;;11.68;8.27;;;;;;;5.08;100.00;101023.56;5022705;28;20049;-54
2021/10/16 06:16:16;;;;;;;12.98;9.02;;;;;;;5.07;100.00;101029.69;5017081;28;20049;-53
2021/10/16 06:18:45;;;;;;;10.88;8.85;;;;;;;5.03;100.00;101012.28;5017960;28;20053;-53
2021/10/16 06:21:11;;;;;;;13.25;9.05;;;;;;;5.10;100.00;101030.53;5022188;28;20053;-52
2021/10/16 06:23:38;;;;;;;13.05;9.48;;;;;;;5.13;100.00;101038.38;5021554;28;20049;-52
2021/10/16 06:26:05;;;;;;;13.63;9.98;;;;;;;5.16;100.00;101038.34;5019074;28;20060;-54
2021/10/16 06:28:31;;;;;;;12.98;9.80;;;;;;;5.18;100.00;101039.19;5022824;28;20050;-53
2021/10/16 06:30:58;;;;;;;12.45;9.25;;;;;;;5.21;100.00;101035.63;5032305;28;20139;-53
2021/10/16 06:33:25;;;;;;;16.52;10.50;;;;;;;5.26;100.00;101044.31;5036040;28;20041;-55
2021/10/16 06:35:52;;;;;;;15.32;10.10;;;;;;;5.30;100.00;101035.50;5042473;28;20071;-53
2021/10/16 06:38:20;;;;;;;13.02;9.32;;;;;;;5.39;100.00;101050.22;5034549;28;20053;-54
2021/10/16 06:40:47;;;;;;;11.65;9.07;;;;;;;5.46;100.00;101044.00;5029120;28;20198;-53
2021/10/16 06:43:13;;;;;;;14.40;9.50;;;;;;;5.44;100.00;101049.28;5027641;28;20789;-53
2021/10/16 06:45:41;;;;;;;13.60;9.35;;;;;;;5.45;100.00;101050.16;5027937;28;20053;-54
2021/10/16 06:48:08;;;;;;;15.73;9.77;;;;;;;5.42;100.00;101042.31;5023672;28;20045;-54
2021/10/16 06:50:34;;;;;;;15.68;9.75;;;;;;;5.45;100.00;101053.66;5022263;28;20056;-53
2021/10/16 06:53:00;;;;;;;20.35;10.45;;;;;;;5.48;100.00;101043.09;5021688;28;20689;-53
2021/10/16 06:55:27;;;;;;;15.50;10.10;;;;;;;5.58;100.00;101051.69;5019566;28;20100;-54
2021/10/16 06:57:53;;;;;;;14.45;9.98;;;;;;;5.63;100.00;101055.13;5019402;28;20060;-53
2021/10/16 07:00:20;;;;;;;15.27;10.52;;;;;;;5.67;100.00;101051.53;5022250;28;20045;-53
2021/10/16 07:02:46;;;;;;;15.57;10.60;;;;;;;5.76;100.00;101058.41;5024982;28;20403;-52
2021/10/16 07:05:13;;;;;;;11.88;10.00;;;;;;;5.83;99.84;101066.16;5023043;28;20067;-52
2021/10/16 07:07:39;;;;;;;14.32;10.10;;;;;;;5.91;99.24;101056.41;5016169;28;20049;-53
2021/10/16 07:10:06;;;;;;;13.23;8.65;;;;;;;6.04;98.38;101064.06;5021056;28;20107;-53
2021/10/16 07:12:35;;;;;;;14.10;9.05;;;;;;;6.03;97.83;101064.97;5020380;28;20057;-53
2021/10/16 07:15:03;;;;;;;14.68;9.82;;;;;;;6.08;98.56;101069.25;5021289;28;20060;-53
2021/10/16 07:17:30;;;;;;;12.05;9.40;;;;;;;6.16;98.99;101069.09;5015549;28;20060;-52
2021/10/16 07:19:56;;;;;;;11.32;8.70;;;;;;;6.26;98.79;101078.59;5020313;28;20056;-53
2021/10/16 07:22:23;;;;;;;12.20;7.70;;;;;;;6.36;96.55;101074.00;5019146;28;20055;-53
2021/10/16 07:24:49;;;;;;;11.95;7.35;;;;;;;6.33;95.63;101082.81;5021544;28;20065;-53
2021/10/16 07:27:17;;;;;;;10.23;6.63;;;;;;;6.37;96.05;101076.63;5019996;28;20056;-53
2021/10/16 07:29:43;;;;;;;10.65;6.65;;;;;;;6.37;95.64;101075.75;5022944;28;21697;-53
2021/10/16 07:32:10;;;;;;;13.52;6.60;;;;;;;6.43;95.99;101080.91;5017104;28;20056;-52
2021/10/16 07:34:37;;;;;;;10.23;6.60;;;;;;;6.55;96.30;101076.25;5019983;28;20080;-52
2021/10/16 07:37:03;;;;;;;10.93;6.70;;;;;;;6.64;94.04;101081.34;5016913;28;20046;-52
2021/10/16 07:39:30;;;;;;;7.63;5.70;;;;;;;6.73;93.60;101090.81;5019928;28;20053;-53
2021/10/16 07:41:56;;;;;;;9.63;5.95;;;;;;;6.77;92.77;101089.00;5021563;28;20703;-51
2021/10/16 07:44:23;;;;;;;9.55;5.75;;;;;;;6.81;92.63;101090.66;5022899;28;20053;-53
2021/10/16 07:46:49;;;;;;;10.38;6.38;;;;;;;6.84;92.41;101093.22;5022719;28;21348;-51
2021/10/16 07:49:16;;;;;;;9.85;5.57;;;;;;;6.86;92.60;101083.53;5021629;28;20440;-52
2021/10/16 07:51:42;;;;;;;10.20;5.93;;;;;;;6.98;93.53;101093.81;5020214;28;20057;-56
2021/10/16 07:54:09;;;;;;;9.23;6.10;;;;;;;7.08;92.21;101095.38;5021517;28;20053;-55
2021/10/16 07:56:35;;;;;;;8.20;6.15;;;;;;;7.10;91.97;101090.03;5020774;28;20053;-52
2021/10/16 07:59:02;;;;;;;9.50;6.05;;;;;;;7.15;91.25;101090.81;5010836;28;20085;-52
2021/10/16 08:01:32;;;;;;;9.05;5.57;;;;;;;7.16;91.25;101093.41;5020574;28;20199;-53
2021/10/16 08:03:59;;;;;;;10.55;6.22;;;;;;;7.16;90.92;101088.16;5022756;28;20486;-51
2021/10/16 08:06:26;;;;;;;9.93;6.63;;;;;;;7.25;91.19;101093.19;5015370;28;20045;-53
2021/10/16 08:08:53;;;;;;;10.50;6.00;;;;;;;7.27;91.51;101088.78;5012789;28;20049;-52
2021/10/16 08:11:21;;;;;;;8.93;6.07;;;;;;;7.35;92.25;101080.72;5016398;28;20459;-52
2021/10/16 08:13:47;;;;;;;10.32;6.60;;;;;;;7.57;90.23;101087.19;5014621;28;20550;-52
2021/10/16 08:16:14;;;;;;;10.23;5.88;;;;;;;7.74;90.25;101071.84;5019863;28;22179;-52
2021/10/16 08:18:40;;;;;;;11.10;5.95;;;;;;;8.10;91.01;101085.03;5017729;28;20906;-52
2021/10/16 08:21:07;;;;;;;8.55;5.72;;;;;;;8.54;87.38;101089.13;5013438;28;20041;-51
2021/10/16 08:23:34;;;;;;;8.85;5.45;;;;;;;8.98;86.55;101089.63;5016072;28;20061;-53
2021/10/16 08:26:00;;;;;;;8.73;5.43;;;;;;;9.35;84.84;101085.00;5021577;28;20503;-51
2021/10/16 08:28:31;;;;;;;7.03;4.90;;;;;;;9.80;80.18;101084.44;5013490;28;20744;-52
2021/10/16 08:31:02;;;;;;;8.20;4.68;;;;;;;10.11;77.69;101081.63;5031773;28;20047;-52
2021/10/16 08:33:33;;;;;;;7.13;5.00;;;;;;;10.32;77.50;101088.00;5027423;28;20068;-52
2021/10/16 08:36:04;;;;;;;7.20;4.43;;;;;;;10.63;74.90;101082.50;5029719;28;20048;-51
2021/10/16 08:38:31;;;;;;;9.52;5.03;;;;;;;10.69;73.53;101079.63;5023962;28;20045;-52
2021/10/16 08:40:58;;;;;;;9.68;4.35;;;;;;;10.97;71.85;101080.31;5030219;28;20049;-51
2021/10/16 08:43:25;;;;;;;7.22;4.55;;;;;;;10.87;71.90;101074.50;5034746;28;20057;-52
2021/10/16 08:45:56;;;;;;;7.75;4.60;;;;;;;10.82;73.01;101070.31;5030673;28;20044;-52
2021/10/16 08:48:23;;;;;;;;;;;;;;;10.83;72.19;101086.16;5023599;28;20045;-52
2021/10/16 08:50:49;;;;;;;6.88;4.90;;;;;;;10.67;73.28;101079.69;5025950;28;20306;-51
2021/10/16 08:53:16;;;;;;;8.18;4.63;;;;;;;10.36;74.35;101087.00;5038567;28;20044;-53
2021/10/16 08:55:48;;;;;;;8.40;4.78;;;;;;;10.05;75.71;101065.97;5034757;28;20045;-51
2021/10/16 08:58:14;;;;;;;7.65;4.43;;;;;;;9.94;75.90;101082.19;5026894;28;20053;-52
2021/10/16 09:00:54;;;;;;;7.88;4.63;;;;;;;9.75;77.95;101083.75;5027170;28;20050;-53
2021/10/16 09:03:36;;;;;;;6.28;4.40;;;;;;;9.60;77.99;101079.78;5033150;28;20147;-52
2021/10/16 09:06:14;;;;;;;9.10;5.10;;;;;;;9.49;79.28;101087.19;5031295;28;20045;-53
2021/10/16 09:08:45;;;;;;;10.13;5.35;;;;;;;9.40;79.14;101084.84;5020560;28;20044;-52
2021/10/16 09:11:17;;;;;;;6.28;4.68;;;;;;;9.53;79.42;101091.47;5032378;28;20045;-52
2021/10/16 09:14:04;;;;;;;9.05;5.70;;;;;;;9.51;79.83;101093.31;5023436;28;20060;-52
2021/10/16 09:16:36;;;;;;;11.63;5.35;;;;;;;9.52;80.42;101096.81;5034646;28;20053;-52
2021/10/16 09:19:09;;;;;;;8.70;4.95;;;;;;;9.62;80.02;101088.53;5021655;28;20434;-53
2021/10/16 09:21:42;;;;;;;11.75;5.47;;;;;;;9.68;79.59;101087.47;5027268;28;20041;-51
2021/10/16 09:24:11;;;;;;;8.95;5.10;;;;;;;9.80;79.51;101089.72;5028838;28;20047;-53
2021/10/16 09:26:41;;;;;;;9.23;5.67;;;;;;;9.95;78.36;101088.34;5025684;28;20046;-53
2021/10/16 09:29:09;;;;;;;13.77;6.20;;;;;;;10.10;77.78;101087.84;5021333;28;20521;-52
2021/10/16 09:31:44;;;;;;;7.57;5.30;;;;;;;10.29;77.05;101077.53;5024001;28;20060;-51
2021/10/16 09:34:11;;;;;;;7.25;5.72;;;;;;;10.31;76.96;101084.50;5027685;28;20049;-51
2021/10/16 09:36:40;;;;;;;8.73;5.72;;;;;;;10.33;77.33;101076.50;5025684;28;20502;-52
2021/10/16 09:39:08;;;;;;;10.27;5.40;;;;;;;10.51;76.50;101079.38;5029093;28;20521;-53
2021/10/16 09:41:37;;;;;;;11.45;6.10;;;;;;;10.82;75.06;101078.25;5024909;28;20052;-51
2021/10/16 09:44:17;;;;;;;8.40;5.22;;;;;;;11.11;74.07;101077.16;5022835;28;20037;-51
2021/10/16 09:46:59;;;;;;;10.13;5.63;;;;;;;11.48;72.34;101066.84;5027993;28;20282;-52
2021/10/16 09:49:37;;;;;;;10.50;5.25;;;;;;;11.90;69.76;101064.25;5021824;28;20045;-52
2021/10/16 09:52:07;;;;;;;8.25;5.30;;;;;;;12.30;70.62;101060.75;5027799;28;20622;-52
2021/10/16 09:54:35;;;;;;;8.88;4.60;;;;;;;13.16;68.80;101059.56;5025841;28;20417;-53
2021/10/16 09:57:05;;;;;;;6.95;4.57;;;;;;;13.96;64.97;101060.06;5025346;28;20041;-51
2021/10/16 09:59:32;;;;;;;;;;;;;;;14.60;59.68;101057.63;5032872;28;20050;-52
2021/10/16 10:02:01;;;;;;;10.20;4.60;;;;;;;15.06;57.57;101053.34;5025565;28;20341;-52
2021/10/16 10:04:31;;;;;;;8.80;3.97;;;;;;;15.16;58.83;101052.81;5029221;28;20099;-52
2021/10/16 10:06:58;;;;;;;8.60;4.50;;;;;;;15.39;56.60;101055.06;5030629;28;20057;-52
2021/10/16 10:09:27;;;;;;;7.20;4.40;;;;;;;15.58;55.88;101053.13;5027594;28;20846;-52
2021/10/16 10:11:53;;;;;;;9.07;4.45;;;;;;;15.82;55.25;101063.31;5026837;28;20045;-53
2021/10/16 10:14:20;;;;;;;7.80;4.32;;;;;;;15.86;54.86;101051.53;5019826;28;20049;-52
2021/10/16 10:16:54;;;;;;;9.52;4.00;;;;;;;16.08;54.94;101055.50;5027506;28;20045;-53
2021/10/16 10:19:22;;;;;;;9.40;4.15;;;;;;;16.37;53.22;101053.75;5022570;28;21070;-51
2021/10/16 10:21:49;;;;;;;10.30;4.43;;;;;;;16.30;53.80;101055.09;5031065;28;21663;-53
2021/10/16 10:24:17;;;;;;;7.45;4.13;;;;;;;16.57;52.53;101047.19;5027588;28;20059;-54
2021/10/16 10:26:48;;;;;;;7.28;4.00;;;;;;;16.45;52.75;101051.47;5023158;28;20049;-53
2021/10/16 10:29:20;;;;;;;9.50;3.90;;;;;;;16.37;52.92;101032.34;5018350;28;20049;-53
2021/10/16 10:31:55;;;;;;;9.23;3.67;;;;;;;16.60;51.72;101041.66;5016278;28;20057;-52
2021/10/16 10:34:31;;;;;;;13.68;3.97;;;;;;;16.66;52.62;101035.13;5020078;28;20063;-52
2021/10/16 10:37:23;;;;;;;5.63;3.72;;;;;;;17.02;51.27;101047.97;5025065;28;20045;-52
2021/10/16 10:39:58;;;;;;;7.05;3.50;;;;;;;17.40;50.10;101043.72;5023835;28;20049;-53
2021/10/16 10:42:24;;;;;;;6.93;3.58;;;;;;;16.87;51.13;101039.09;5032372;28;20414;-52
2021/10/16 10:44:53;;;;;;;6.05;3.53;;;;;;;16.49;52.68;101042.31;5030647;28;20059;-52
2021/10/16 10:47:22;;;;;;;7.82;4.10;;;;;;;16.18;52.99;101046.94;5028074;28;20072;-53
2021/10/16 10:49:51;;;;;;;7.07;3.67;;;;;;;15.75;55.08;101042.31;5029144;28;20072;-52
2021/10/16 10:52:18;;;;;;;10.00;4.35;;;;;;;15.78;55.42;101036.78;5026723;28;20048;-52
2021/10/16 10:55:06;;;;;;;9.48;4.30;;;;;;;15.83;54.62;101038.34;5023881;28;20037;-53
2021/10/16 10:57:42;;;;;;;6.15;3.30;;;;;;;15.79;54.66;101027.84;5030172;28;20045;-52
2021/10/16 11:00:11;;;;;;;7.47;4.10;;;;;;;15.97;55.13;101030.38;5028961;28;20053;-53
2021/10/16 11:02:38;;;;;;;9.80;4.20;;;;;;;15.98;54.52;101032.09;5019404;28;20600;-52
2021/10/16 11:08:14;;;;;;;8.00;3.35;;;;;;;15.61;55.18;101015.53;5024725;28;20037;-52
2021/10/16 11:10:43;;;;;;;6.57;3.75;;;;;;;15.38;56.75;101014.19;5034481;28;20425;-52
2021/10/16 11:13:21;;;;;;;7.03;3.72;;;;;;;15.23;58.13;101012.38;5038254;28;20048;-53
2021/10/16 11:15:59;;;;;;;8.23;3.25;;;;;;;14.99;56.92;101008.41;5034515;28;20052;-52
2021/10/16 11:18:26;;;;;;;12.48;3.20;;;;;;;14.80;58.59;101013.03;5024424;28;20524;-52
2021/10/16 11:20:55;;;;;;;5.93;2.83;;;;;;;14.66;57.71;101009.31;5023831;28;20041;-52
2021/10/16 11:23:23;;;;;;;8.32;2.72;;;;;;;14.59;58.10;100999.06;5037457;28;20266;-52
2021/10/16 11:25:58;;;;;;;9.48;3.00;;;;;;;14.50;58.23;100992.41;5040407;28;20052;-50